Weather observations for the past three days for
Orr Regional Airport
Imperial (Metric)
Date Time (cdt) Wind (mph) Vis. (mi.) Weather Sky Cond. Temperature (ºF) Relative Humidity Wind Chill (°F) Heat Index (°F) Pressure Precipitation (in)
Air Dwpt 6 hour altimeter (in) sea level (mb) 1 hr 3 hr 6 hr
Max. Min.
09 06:35 NW 9 8.00 Fair CLR 36.7 24.1 60% 31 29.64 0.0
09 06:15 NW 12 G 18 8.00 Fair CLR 37.2 23.4 57% 30 29.63 0.0
09 05:55 NW 14 G 21 8.00 Fair CLR 37.8 22.6 54% 30 29.62 0.0
09 05:35 NW 14 G 20 9.00 Fair CLR 38.1 21.9 52% 30 29.62 0.0
09 05:15 NW 12 G 22 9.00 Partly Cloudy SCT095 38.7 21.9 51% 32 29.61 0.0
09 04:55 Vrbl 7 9.00 Overcast OVC100 39.9 22.1 49% 36 29.61 0.0
09 04:35 NW 6 9.00 Overcast OVC100 39.9 21.7 48% 36 29.6 0.0
09 04:15 NW 6 9.00 Overcast OVC100 39.7 21.2 47% 36 29.6 0.0
09 03:55 NW 6 9.00 Mostly Cloudy BKN095 39.7 21.4 48% 36 29.59 0.0
09 03:35 NW 6 9.00 Mostly Cloudy BKN095 39.9 21.2 47% 36 29.59 0.0
09 03:15 NW 8 9.00 Mostly Cloudy BKN100 40.6 20.5 44% 36 29.58 0.0
09 02:55 NW 6 10.00 A Few Clouds FEW080 39.6 22.5 50% 36 29.58 0.0
09 02:35 NW 5 9.00 Partly Cloudy SCT080 39.6 21.7 49% 37 29.57 0.0
09 02:15 NW 3 10.00 Partly Cloudy SCT090 39.7 20.1 45% 29.57 0.0
09 01:55 NW 5 9.00 Mostly Cloudy BKN085 39.9 21.7 48% 37 29.57 0.0
09 01:35 NW 5 9.00 Mostly Cloudy BKN085 39.7 22.5 50% 37 29.57 0.0
09 01:15 NW 5 9.00 Fair CLR 40.8 21.6 46% 38 29.57 0.0
09 00:55 NW 5 9.00 A Few Clouds FEW140 42.6 20.8 56.1 38.7 42% 40 29.57 0.0
09 00:35 NW 3 9.00 Mostly Cloudy SCT100 BKN140 42.8 21.7 43% 29.58 0.0
09 00:15 NW 3 9.00 Overcast OVC100 43.9 23.2 44% 29.57 0.0
08 23:55 Calm 9.00 Mostly Cloudy BKN110 42.8 24.6 49% 29.57 0.0
08 23:35 NW 3 9.00 Mostly Cloudy BKN110 BKN130 44.8 23.4 43% 29.58 0.0
08 23:15 NW 3 9.00 Partly Cloudy SCT140 43.7 24.8 47% 29.57 0.0
08 22:55 NW 3 9.00 Fair CLR 39.6 26.2 59% 29.57 0.0
08 22:35 Calm 9.00 Fair CLR 39.7 26.8 60% 29.56 0.0
08 22:15 Calm 9.00 Fair CLR 44.4 24.6 46% 29.56 0.0
08 21:55 NW 5 9.00 Fair CLR 45.9 23 41% 44 29.56 0.0
08 21:35 N 3 9.00 Fair CLR 47.3 22.5 38% 29.55 0.0
08 21:15 NW 5 9.00 Fair CLR 49.3 19.6 31% 48 29.56 0.0
08 20:55 NW 6 8.00 Fair CLR 51.3 19.8 29% 29.55 0.0
08 20:35 NW 8 8.00 Fair CLR 51.3 20.1 29% 29.55 0.0
08 20:15 NW 8 G 17 8.00 Fair CLR 52.9 20.1 28% 29.55 0.0
08 19:55 NW 8 8.00 A Few Clouds FEW110 53.8 24.1 32% 29.55 0.0
08 19:35 NW 10 7.00 Partly Cloudy SCT110 SCT130 54.7 23.9 30% 29.55 0.0
08 19:15 NW 12 G 22 8.00 A Few Clouds FEW130 55.4 23.2 29% 29.55 0.0
08 18:55 NW 15 G 24 8.00 Fair CLR 56.7 23.9 60.1 55.9 28% 29.55 0.0
08 18:35 NW 12 G 23 8.00 Fair CLR 57.6 24.8 28% 29.54 0.0
08 18:15 NW 18 G 24 7.00 Fair CLR 58.1 25.5 29% 29.54 0.0
08 17:55 NW 15 7.00 Mostly Cloudy SCT075 BKN090 58.8 28.6 32% 29.53 0.0
08 17:35 NW 13 8.00 Mostly Cloudy BKN075 BKN090 57.9 28 32% 29.53 0.0
08 17:15 NW 14 G 20 7.00 Mostly Cloudy BKN075 58.8 26.4 29% 29.53 0.0
08 16:55 W 16 G 23 7.00 Mostly Cloudy SCT080 BKN090 59.4 25.9 28% 29.53 0.0
08 16:35 W 10 G 18 7.00 Mostly Cloudy BKN090 58.1 25.9 29% 29.54 0.0
08 16:15 NW 8 7.00 Overcast OVC090 56.8 25.5 30% 29.55 0.0
08 15:55 W 6 8.00 Overcast FEW070 OVC085 56.3 23.4 28% 29.55 0.0
08 15:35 W 13 G 23 8.00 Overcast SCT075 OVC090 56.3 23 28% 29.56 0.0
08 15:15 W 9 G 23 8.00 Mostly Cloudy FEW065 BKN080 56.3 22.8 27% 29.57 0.0
08 14:55 W 9 G 20 8.00 Mostly Cloudy BKN075 57.2 23.7 27% 29.57 0.0
08 14:35 NW 12 G 28 7.00 Mostly Cloudy BKN080 56.8 21.9 26% 29.57 0.0
08 14:15 W 12 7.00 Overcast FEW070 OVC090 57.4 21.2 25% 29.58 0.0
08 13:55 W 8 7.00 Overcast OVC085 57.6 20.8 24% 29.57 0.0
08 13:35 SW 12 7.00 Overcast OVC080 57.6 21.6 25% 29.58 0.0
08 13:15 Vrbl 7 7.00 Overcast OVC080 56.5 21.7 26% 29.58 0.0
08 12:55 W 12 G 26 7.00 Mostly Cloudy BKN085 BKN130 56.5 21.2 56.5 31.3 25% 29.59 0.0
08 12:35 SW 12 G 20 7.00 Mostly Cloudy SCT085 SCT100 BKN140 55.4 21.6 27% 29.6 0.0
08 12:15 W 9 G 24 7.00 Overcast FEW080 BKN100 OVC150 54.7 21 27% 29.62 0.0
08 11:55 SW 10 7.00 Overcast BKN090 OVC110 54.7 21.2 27% 29.63 0.0
08 11:35 Vrbl 3 7.00 Mostly Cloudy SCT090 BKN110 53.6 20.5 27% 29.63 0.0
08 11:15 NW 6 7.00 Overcast OVC100 52.9 20.8 28% 29.64 0.0
08 10:55 SW 9 7.00 Overcast OVC100 52 19.8 28% 29.66 0.0
08 10:35 W 8 7.00 Overcast FEW080 OVC100 51.6 20.5 29% 29.66 0.0
08 10:15 Vrbl 5 8.00 Overcast FEW075 OVC095 50.2 22.1 33% 29.67 0.0
08 09:55 W 3 8.00 Overcast SCT060 OVC090 47.8 23.7 39% 29.69 0.0
08 09:35 Calm 8.00 Overcast BKN065 OVC090 45.1 23.7 43% 29.7 0.0
08 09:15 W 6 7.00 Overcast BKN075 OVC095 43.7 24.1 46% 41 29.7 0.0
08 08:55 W 5 8.00 Mostly Cloudy BKN090 BKN120 41.4 23.2 48% 39 29.71 0.0
08 08:35 SW 3 8.00 Mostly Cloudy SCT110 BKN160 40.6 23.5 51% 29.71 0.0
08 08:15 SW 3 8.00 Mostly Cloudy FEW110 BKN160 38.1 23.4 55% 29.71 0.0
08 07:55 W 3 8.00 Mostly Cloudy SCT085 BKN130 BKN150 36 22.5 58% 29.71 0.0
08 07:35 Calm 8.00 Overcast FEW060 BKN085 OVC150 34 22.6 63% 29.71 0.0
08 07:15 Calm 8.00 Overcast OVC085 32 24.4 74% 29.71 0.0
08 06:55 W 3 9.00 Mostly Cloudy BKN080 33.4 20.7 34.5 30.2 59% 29.7 0.0
08 06:35 Calm 8.00 Fair CLR 32 20.1 62% 29.7 0.0
08 06:15 Calm 9.00 Fair CLR 32.7 19.4 58% 29.7 0.0
08 05:55 Calm 10.00 Fair CLR 32.7 19.2 58% 29.7 0.0
08 05:35 Calm 9.00 Fair CLR 32.7 19.2 58% 29.7 0.0
08 05:15 Calm 10.00 Fair CLR 32.5 19 58% 29.7 0.0
08 04:55 Calm 10.00 Fair CLR 33.3 19 56% 29.7 0.0
08 04:35 Calm 10.00 Fair CLR 32.9 18.9 56% 29.7 0.0
08 04:15 Calm 10.00 Fair CLR 32.2 19.2 59% 29.7 0.0
08 03:55 Calm 9.00 Fair CLR 30.2 19.8 65% 29.71 0.0
08 03:35 Calm 10.00 Fair CLR 33.4 18.7 55% 29.71 0.0
08 03:15 SE 3 10.00 Fair CLR 32.4 18.5 57% 29.71 0.0
08 02:55 SE 3 10.00 Fair CLR 32.5 18.7 57% 29.71 0.0
08 02:35 SE 3 10.00 Fair CLR 30.7 19.6 63% 29.71 0.0
08 02:15 Calm 10.00 Fair CLR 33.3 18.7 55% 29.72 0.0
08 01:55 S 3 10.00 Fair CLR 33.6 18.7 54% 29.72 0.0
08 01:35 Calm 9.00 Fair CLR 33.6 18.9 55% 29.72 0.0
08 01:15 SE 5 10.00 Fair CLR 33.8 18.9 54% 30 29.73 0.0
08 00:55 SE 5 10.00 Fair CLR 34.2 18.7 47.3 27.9 53% 31 29.74 0.0
08 00:35 S 3 10.00 Fair CLR 33.6 18.9 55% 29.75 0.0
08 00:15 SE 3 9.00 Fair CLR 31.6 19.8 61% 29.75 0.0
07 23:55 Calm 10.00 Fair CLR 32.2 20.3 62% 29.75 0.0
07 23:35 SE 3 10.00 Fair CLR 27.9 21.2 76% 29.76 0.0
07 23:15 Calm 10.00 Fair CLR 28.6 21.6 75% 29.76 0.0
07 22:55 Calm 10.00 Fair CLR 32.9 20.8 61% 29.77 0.0
07 22:35 Calm 9.00 Fair CLR 30.6 21.4 69% 29.77 0.0
07 22:15 Calm 10.00 Fair CLR 31.1 22.3 70% 29.77 0.0
07 21:55 Calm 10.00 Partly Cloudy SCT070 34.7 23.7 64% 29.78 0.0
07 21:35 Calm 10.00 A Few Clouds FEW075 34.9 21.9 59% 29.78 0.0
07 21:15 Calm 10.00 Fair CLR 35.1 22.5 60% 29.77 0.0
07 20:55 Calm 9.00 A Few Clouds FEW070 40.3 21.4 47% 29.76 0.0
07 20:35 Calm 9.00 Fair CLR 41.9 20.1 42% 29.76 0.0
07 20:15 NW 3 8.00 Fair CLR 44.6 18.5 35% 29.76 0.0
07 19:55 NW 7 9.00 Fair CLR 46 19 34% 43 29.76 0.0
07 19:35 NW 8 9.00 Fair CLR 46.2 18 32% 43 29.76 0.0
07 19:15 NW 9 8.00 Fair CLR 46.8 17.2 31% 43 29.76 0.0
07 18:55 NW 7 8.00 Fair CLR 47.5 17.4 48.9 43.2 30% 45 29.76 0.0
07 18:35 NW 12 G 18 9.00 Fair CLR 47.5 16.2 28% 43 29.76 0.0
07 18:15 NW 12 G 20 8.00 A Few Clouds FEW070 47.8 16 28% 43 29.76 0.0
07 17:55 NW 14 8.00 A Few Clouds FEW070 47.7 15.6 28% 42 29.77 0.0
07 17:35 NW 17 G 23 8.00 A Few Clouds FEW075 48.6 15.6 27% 43 29.77 0.0
07 17:15 NW 13 9.00 Partly Cloudy SCT070 48.6 15.3 26% 44 29.77 0.0
07 16:55 NW 12 8.00 Partly Cloudy SCT070 47.5 16.7 29% 43 29.77 0.0
07 16:35 NW 15 G 22 8.00 Partly Cloudy SCT070 48.6 15.8 27% 43 29.77 0.0
07 16:15 W 13 G 21 8.00 Mostly Cloudy SCT070 BKN080 48.2 17.1 29% 43 29.77 0.0
07 15:55 NW 12 G 21 8.00 Mostly Cloudy BKN075 46.4 17.4 31% 42 29.78 0.0
07 15:35 NW 12 G 18 8.00 Overcast OVC075 46 18.1 33% 41 29.78 0.0
07 15:15 NW 15 G 20 8.00 Overcast OVC075 46.6 18.3 32% 41 29.78 0.0
07 14:55 NW 13 G 17 9.00 Overcast BKN065 OVC080 46.4 18.1 32% 41 29.79 0.0
07 14:35 NW 9 G 18 9.00 Overcast BKN065 OVC080 45.1 18 34% 41 29.79 0.0
07 14:15 NW 12 8.00 Overcast OVC070 44.1 18.3 36% 39 29.79 0.0
07 13:55 NW 12 8.00 Mostly Cloudy SCT055 BKN075 43.9 18.5 36% 38 29.79 0.0
07 13:35 NW 13 8.00 Mostly Cloudy FEW055 BKN080 45.3 19.2 35% 40 29.8 0.0
07 13:15 NW 12 8.00 Mostly Cloudy FEW060 BKN080 43.9 18.5 36% 38 29.8 0.0
07 12:55 NW 8 G 18 8.00 Mostly Cloudy FEW075 SCT085 BKN100 BKN150 42.6 17.4 43.2 27.3 36% 38 29.81 0.0
07 12:35 W 13 9.00 Overcast SCT070 BKN085 OVC100 43.2 18 36% 37 29.81 0.0
07 12:15 NW 10 9.00 Overcast BKN070 OVC090 41.9 17.1 37% 36 29.82 0.0
07 11:55 NW 9 9.00 Overcast SCT055 OVC070 41.2 18 39% 36 29.82 0.0
07 11:35 W 12 G 18 8.00 Overcast SCT055 BKN075 BKN085 OVC110 40.1 17.4 40% 34 29.82 0.0
07 11:15 Vrbl 7 8.00 Overcast FEW050 BKN085 OVC110 40.1 18.3 41% 36 29.82 0.0
07 10:55 NW 13 9.00 Overcast FEW060 BKN085 OVC110 39.6 18.9 43% 33 29.83 0.0
07 10:35 N 9 8.00 Overcast FEW065 OVC080 38.8 19.4 46% 33 29.83 0.0
07 10:15 NW 7 8.00 Overcast FEW060 OVC080 38.7 20.5 48% 34 29.83 0.0
07 09:55 NW 13 8.00 Overcast OVC075 37.8 20.7 50% 30 29.83 0.0
07 09:35 NW 10 8.00 Overcast OVC075 36.3 21 54% 30 29.83 0.0
07 08:55 NW 9 8.00 Overcast OVC070 34 25.2 70% 27 29.84 0.0
07 08:35 NW 8 8.00 Mostly Cloudy BKN065 BKN075 33.3 26.1 75% 27 29.84 0.0
07 08:15 NW 7 9.00 A Few Clouds FEW070 32.7 27.7 82% 27 29.84 0.0
07 07:55 NW 6 9.00 Fair CLR 31.5 27 83% 26 29.84 0.0
07 07:35 NW 3 9.00 Fair CLR 30.7 27 86% 29.84 0.0
07 07:15 NW 3 8.00 Fair CLR 28.9 26.1 89% 29.83 0.0
07 06:55 W 3 9.00 Fair CLR 26.6 24.6 29.5 20.8 92% 29.83 0.0
07 06:35 Calm 10.00 Fair CLR 26.2 24.4 93% 29.82 0.0
07 06:15 Calm 10.00 Fair CLR 24.8 23.9 96% 29.82 0.0
07 05:55 Calm 10.00 Fair CLR 25.3 23.9 94% 29.82 0.0
07 05:35 Calm 10.00 Fair CLR 24.6 23.5 96% 29.82 0.0
07 05:15 Calm 10.00 Fair CLR 20.8 19.8 96% 29.82 0.0
07 04:55 Calm 10.00 Fair CLR 21.9 21.2 97% 29.83 0.0
07 04:35 Calm 10.00 Fair CLR 22.6 21.6 96% 29.83 0.0
07 04:15 Calm 10.00 Fair CLR 23.5 22.3 95% 29.83 0.0
07 03:55 Calm 10.00 Fair CLR 23.4 22.5 96% 29.83 0.0
07 03:35 Calm 10.00 Fair CLR 23.4 22.5 96% 29.83 0.0
07 03:15 Calm 10.00 Fair CLR 25 23.2 93% 29.84 0.0
07 02:55 Calm 10.00 Fair CLR 24.4 23 94% 29.84 0.0
07 02:35 Calm 10.00 Fair CLR 24.6 23.4 95% 29.84 0.0
07 02:15 Calm 10.00 Fair CLR 28.2 24.4 86% 29.84 0.0
07 01:55 Calm 10.00 Fair CLR 28.8 24.4 84% 29.85 0.0
07 01:35 Calm 10.00 Fair CLR 27.7 24.6 88% 29.86 0.0
07 01:15 Calm 10.00 Fair CLR 29.3 25 84% 29.86 0.0
07 00:55 Calm 10.00 Fair CLR 29.8 25 37.2 28 82% 29.87 0.0
07 00:35 Calm 10.00 Fair CLR 29.1 25.3 86% 29.87 0.0
07 00:15 Calm 10.00 Fair CLR 31.1 25.3 79% 29.87 0.0
06 23:55 Calm 10.00 A Few Clouds FEW049 32.4 25.3 75% 29.88 0.0
06 23:35 Calm 10.00 Mostly Cloudy BKN049 34 25.3 71% 29.88 0.0
06 23:15 NW 3 10.00 Overcast OVC049 35.1 25.7 69% 29.89 0.0
06 22:55 W 5 10.00 Overcast BKN037 OVC045 35.4 25.5 67% 32 29.89 0.0
06 22:35 NW 5 10.00 Overcast OVC038 35.4 25.5 67% 32 29.89 0.0
06 22:15 W 3 10.00 Overcast OVC039 35.4 25.3 67% 29.89 0.0
06 21:55 W 3 10.00 Overcast OVC040 35.2 25 66% 29.9 0.0
06 21:35 W 3 10.00 Overcast OVC040 36 24.8 64% 29.9 0.0
06 21:15 W 5 10.00 Overcast OVC040 36.5 24.6 62% 33 29.9 0.0
06 20:55 NW 6 10.00 Overcast OVC041 36.3 24.6 63% 32 29.89 0.0
06 20:35 W 7 10.00 Overcast OVC040 36.3 24.6 63% 31 29.89 0.0
06 20:15 NW 6 10.00 Overcast OVC044 36.5 24.8 63% 32 29.89 0.0
06 19:55 NW 10 10.00 Overcast SCT035 OVC047 36.7 24.3 61% 30 29.89 0.0
06 19:35 W 10 10.00 Overcast SCT035 BKN045 OVC060 37 24.6 61% 30 29.9 0.0
06 19:15 W 8 10.00 Overcast FEW035 BKN060 BKN070 OVC090 36.9 24.8 62% 31 29.9 0.0
06 18:55 W 12 10.00 Overcast SCT036 OVC047 37.2 24.1 39.2 37 59% 30 29.9 0.0
06 18:35 W 10 10.00 Overcast FEW034 OVC045 37 23.7 59% 30 29.9 0.0
06 18:15 W 10 9.00 Unknown Precip OVC038 37.4 23.7 58% 31 29.9 0.0
06 17:55 NW 8 10.00 Overcast OVC034 37.8 23.7 57% 32 29.9 0.0
06 17:35 NW 10 8.00 Unknown Precip OVC035 37.8 23.7 57% 31 29.9 0.0
06 17:15 NW 9 10.00 Overcast BKN035 OVC044 37.8 23 55% 32 29.9 0.0
06 16:55 NW 8 10.00 Overcast BKN038 OVC046 38.3 23.2 55% 33 29.9 0.0
06 16:35 W 8 10.00 Overcast OVC041 38.8 22.6 52% 34 29.9 0.0
06 16:15 NW 10 10.00 Overcast OVC040 38.7 22.3 52% 32 29.9 0.0
06 15:55 NW 12 G 18 10.00 Overcast OVC041 38.3 21.6 51% 32 29.91 0.0
06 15:35 NW 12 G 20 10.00 Overcast OVC041 38.7 21.6 50% 32 29.91 0.0
06 15:15 NW 13 10.00 Overcast OVC041 38.7 21.2 50% 32 29.9 0.0
06 14:55 NW 12 G 18 10.00 Overcast OVC041 38.3 21 50% 32 29.91 0.0
06 14:35 NW 8 G 18 10.00 Overcast OVC042 38.1 21.2 51% 33 29.91 0.0
06 14:15 NW 12 10.00 Overcast OVC040 38.8 21.9 51% 32 29.91 0.0
06 13:55 NW 14 G 21 10.00 Overcast OVC036 38.5 21.6 51% 31 29.91 0.0
06 13:35 NW 8 9.00 Overcast OVC035 37.8 22.1 53% 32 29.91 0.0
06 13:15 W 9 10.00 Overcast OVC034 37.8 22.5 54% 32 29.91 0.0
06 12:55 W 15 10.00 Overcast OVC035 37.6 22.3 37.9 29.3 54% 29 29.92 0.0
06 12:35 NW 10 9.00 Overcast OVC037 37.4 22.6 55% 31 29.92 0.0
06 12:15 NW 10 9.00 Overcast OVC034 36.9 22.8 57% 30 29.92 0.0
06 11:55 NW 8 G 16 10.00 Overcast OVC035 37 21.7 54% 32 29.92 0.0
06 11:35 NW 12 10.00 Overcast OVC036 37 22.1 55% 30 29.92 0.0
06 11:15 NW 8 10.00 Overcast SCT027 OVC037 36.7 23.2 58% 31 29.92 0.0
06 10:55 NW 10 G 18 10.00 Overcast SCT028 OVC038 35.2 22.8 61% 28 29.93 0.0
06 10:35 NW 12 10.00 Overcast SCT026 OVC036 34.7 23.5 64% 27 29.92 0.0
06 10:15 NW 9 10.00 Mostly Cloudy SCT023 BKN030 BKN043 35.1 23.9 64% 29 29.92 0.0
06 09:55 NW 10 9.00 Overcast BKN018 OVC043 33.6 25.2 71% 26 29.93 0.0
06 09:35 NW 10 10.00 Overcast SCT017 OVC044 32.9 25 73% 25 29.93 0.0
06 09:15 NW 10 10.00 Overcast BKN016 OVC045 32.4 25.5 76% 25 29.93 0.0
06 08:55 W 9 10.00 Overcast OVC015 31.5 25.2 78% 24 29.92 0.0
06 08:35 NW 8 10.00 Overcast BKN015 OVC043 31.1 25 78% 24 29.92 0.0
06 08:15 NW 8 9.00 Overcast BKN016 OVC039 30.6 24.8 79% 24 29.92 0.0
06 07:55 NW 12 10.00 Overcast SCT015 BKN038 OVC047 30.2 24.8 80% 21 29.92 0.0
06 07:35 NW 9 10.00 Overcast OVC015 30 24.8 81% 22 29.92 0.0
06 07:15 W 8 10.00 Overcast BKN016 OVC036 29.7 24.3 80% 23 29.91 0.0
06 06:55 W 7 9.00 Overcast FEW016 OVC035 29.5 23.9 31.5 29.3 80% 23 29.9 0.0
Date Time (cdt) Wind (mph) Vis. (mi.) Weather Sky Cond. Air Dwpt Max. Min. Relative Humidity Wind Chill (°F) Heat Index (°F) altimeter (in) sea level (mb) 1 hr 3 hr 6 hr
6 hour
Temperature (ºF) Pressure Precipitation (in)